Time;durP1;ratioP1;P1;durP2;ratioP2;P2;SDS_P1;SDS_P2;PMS_P1;PMS_P2;Temp;Humidity;BMP_temperature;BMP_pressure;BME280_temperature;BME280_humidity;BME280_pressure;Samples;Min_cycle;Max_cycle;Signal;HPM_P1;HPM_P2
2023/04/03 00:02:19;;;;;;;2.78;0.90;;;15.10;65.90;;;;;;10333825;28;20053;-58
2023/04/03 00:07:20;;;;;;;1.13;0.52;;;15.10;66.10;;;;;;10323618;28;20677;-58
2023/04/03 00:12:21;;;;;;;1.42;0.70;;;15.10;65.90;;;;;;10323531;28;20025;-58
2023/04/03 00:17:22;;;;;;;3.25;1.02;;;15.10;65.90;;;;;;10323181;28;20373;-58
2023/04/03 00:22:22;;;;;;;1.38;0.82;;;15.10;65.70;;;;;;10323352;28;20022;-55
2023/04/03 00:27:23;;;;;;;1.88;0.70;;;15.00;65.70;;;;;;10321874;28;20121;-56
2023/04/03 00:32:24;;;;;;;1.42;0.85;;;15.00;65.60;;;;;;10329275;28;20109;-55
2023/04/03 00:37:25;;;;;;;4.00;1.05;;;15.00;65.60;;;;;;10331587;28;20106;-55
2023/04/03 00:42:25;;;;;;;1.77;0.90;;;15.00;65.40;;;;;;10331403;28;20110;-55
2023/04/03 00:47:27;;;;;;;2.17;0.70;;;15.00;65.40;;;;;;10331381;28;20031;-55
2023/04/03 00:52:29;;;;;;;1.15;0.70;;;14.90;65.30;;;;;;10329916;28;20053;-54
2023/04/03 00:57:31;;;;;;;1.40;0.88;;;15.00;65.50;;;;;;10330361;28;20067;-55
2023/04/03 01:02:32;;;;;;;2.05;0.82;;;15.00;65.30;;;;;;10340875;28;20672;-55
2023/04/03 01:07:36;;;;;;;1.90;0.90;;;14.90;65.30;;;;;;10330288;28;20046;-55
2023/04/03 01:12:41;;;;;;;2.50;0.63;;;14.90;65.20;;;;;;10330242;28;20113;-55
2023/04/03 01:17:51;;;;;;;1.38;0.63;;;14.90;65.20;;;;;;10328572;28;20022;-54
2023/04/03 01:23:20;;;;;;;1.45;0.65;;;14.90;65.20;;;;;;10329705;28;20026;-54
2023/04/03 01:28:25;;;;;;;0.80;0.40;;;14.90;65.10;;;;;;10328412;28;20597;-55
2023/04/03 01:33:26;;;;;;;1.92;0.63;;;14.90;65.10;;;;;;10328193;28;20073;-55
2023/04/03 01:38:27;;;;;;;1.50;0.93;;;14.90;65.00;;;;;;10327996;28;20019;-54
2023/04/03 01:43:27;;;;;;;1.23;0.60;;;14.80;65.00;;;;;;10328138;28;20026;-55
2023/04/03 01:48:28;;;;;;;2.35;1.05;;;14.80;65.10;;;;;;10328339;28;20172;-55
2023/04/03 01:53:29;;;;;;;1.88;0.80;;;14.80;64.90;;;;;;10327828;28;20542;-54
2023/04/03 01:58:29;;;;;;;0.98;0.57;;;14.80;65.20;;;;;;10328569;28;20065;-56
2023/04/03 02:03:30;;;;;;;1.67;0.60;;;14.80;65.00;;;;;;10337757;28;20458;-55
2023/04/03 02:08:31;;;;;;;1.92;0.85;;;14.80;64.90;;;;;;10328446;28;20049;-56
2023/04/03 02:13:32;;;;;;;1.92;0.68;;;14.80;64.90;;;;;;10327798;28;20089;-55
2023/04/03 02:18:32;;;;;;;1.73;0.60;;;14.70;64.80;;;;;;10327698;28;20157;-56
2023/04/03 02:23:35;;;;;;;0.88;0.60;;;14.70;64.60;;;;;;10327481;28;20106;-55
2023/04/03 02:28:37;;;;;;;0.95;0.50;;;14.70;64.80;;;;;;10325956;28;20042;-55
2023/04/03 02:33:38;;;;;;;0.70;0.43;;;14.70;64.70;;;;;;10326935;28;20021;-55
2023/04/03 02:38:39;;;;;;;2.10;0.40;;;14.70;64.70;;;;;;10327000;28;20022;-55
2023/04/03 02:43:39;;;;;;;1.33;0.63;;;14.70;65.30;;;;;;10326855;28;20031;-55
2023/04/03 02:48:40;;;;;;;1.48;0.70;;;14.80;66.20;;;;;;10326502;28;20125;-55
2023/04/03 02:53:41;;;;;;;2.00;0.93;;;15.00;65.70;;;;;;10325381;28;20019;-56
2023/04/03 02:58:41;;;;;;;1.52;0.60;;;15.20;65.20;;;;;;10327450;28;20066;-55
2023/04/03 03:03:42;;;;;;;2.88;1.17;;;15.40;64.20;;;;;;10333986;28;20121;-55
2023/04/03 03:08:43;;;;;;;1.17;0.70;;;15.70;63.30;;;;;;10324602;28;20027;-55
2023/04/03 03:13:44;;;;;;;1.13;0.65;;;16.00;62.50;;;;;;10325840;28;20673;-55
2023/04/03 03:18:45;;;;;;;1.90;0.47;;;16.20;62.00;;;;;;10325585;28;20029;-55
2023/04/03 03:23:46;;;;;;;1.10;0.50;;;16.50;61.30;;;;;;10323932;28;20126;-56
2023/04/03 03:28:46;;;;;;;1.65;0.35;;;16.60;60.70;;;;;;10323449;28;20058;-55
2023/04/03 03:33:47;;;;;;;1.15;0.45;;;16.80;60.30;;;;;;10324585;28;20074;-56
2023/04/03 03:38:48;;;;;;;2.35;0.65;;;16.90;60.20;;;;;;10324788;28;20034;-56
2023/04/03 03:43:48;;;;;;;1.35;0.40;;;16.90;60.00;;;;;;10324551;28;20116;-55
2023/04/03 03:48:49;;;;;;;0.82;0.57;;;16.90;59.90;;;;;;10324105;28;20061;-56
2023/04/03 03:53:50;;;;;;;2.95;0.85;;;17.00;59.80;;;;;;10323218;28;20165;-56
2023/04/03 03:58:51;;;;;;;1.27;0.50;;;17.00;59.60;;;;;;10324216;28;20433;-56
2023/04/03 04:03:53;;;;;;;0.75;0.40;;;17.00;59.50;;;;;;10322327;28;20046;-56
2023/04/03 04:08:54;;;;;;;1.50;0.93;;;16.90;59.70;;;;;;10322958;28;20452;-56
2023/04/03 04:13:55;;;;;;;1.35;0.50;;;16.90;60.00;;;;;;10322400;28;20015;-55
2023/04/03 04:18:55;;;;;;;1.10;0.60;;;16.80;60.30;;;;;;10322313;28;20106;-56
2023/04/03 04:23:56;;;;;;;0.98;0.40;;;16.60;60.60;;;;;;10322383;28;20676;-55
2023/04/03 04:28:57;;;;;;;0.82;0.35;;;16.60;60.70;;;;;;10321700;28;20063;-55
2023/04/03 04:33:57;;;;;;;0.90;0.40;;;16.50;60.90;;;;;;10322811;28;20031;-55
2023/04/03 04:38:58;;;;;;;2.10;1.25;;;16.50;60.90;;;;;;10323271;28;20564;-55
2023/04/03 04:43:59;;;;;;;2.17;0.82;;;16.50;61.10;;;;;;10322483;28;20046;-56
2023/04/03 04:48:59;;;;;;;2.78;0.55;;;16.50;61.40;;;;;;10322364;28;20034;-55
2023/04/03 04:54:00;;;;;;;3.92;1.35;;;16.50;61.30;;;;;;10321446;28;20109;-53
2023/04/03 04:59:01;;;;;;;4.50;1.20;;;16.50;62.60;;;;;;10322806;28;20121;-53
2023/04/03 05:04:02;;;;;;;3.75;0.73;;;16.60;62.00;;;;;;10327894;28;20157;-56
2023/04/03 05:09:02;;;;;;;8.32;1.08;;;16.60;62.40;;;;;;10321228;28;20035;-56
2023/04/03 05:14:06;;;;;;;3.22;0.80;;;16.70;63.90;;;;;;10322616;28;20042;-55
2023/04/03 05:19:06;;;;;;;10.57;1.13;;;16.60;63.60;;;;;;10327233;28;20069;-54
2023/04/03 05:24:09;;;;;;;10.98;1.45;;;16.60;63.70;;;;;;10327720;28;20023;-56
2023/04/03 05:29:10;;;;;;;5.75;1.25;;;16.50;63.30;;;;;;10329531;28;20566;-55
2023/04/03 05:34:10;;;;;;;8.52;1.30;;;16.50;63.10;;;;;;10329153;28;20014;-54
2023/04/03 05:39:11;;;;;;;7.35;1.42;;;16.50;63.60;;;;;;10327975;28;20027;-55
2023/04/03 05:44:12;;;;;;;6.88;1.42;;;16.40;64.00;;;;;;10328296;28;20057;-57
2023/04/03 05:49:12;;;;;;;6.30;1.60;;;16.40;63.50;;;;;;10327947;28;20599;-57
2023/04/03 05:54:26;;;;;;;9.52;1.70;;;16.40;63.10;;;;;;10327873;28;20102;-56
2023/04/03 05:59:27;;;;;;;11.60;2.05;;;16.40;63.40;;;;;;10333384;28;20026;-55
2023/04/03 06:04:28;;;;;;;16.80;2.22;;;16.40;63.00;;;;;;10325864;28;20437;-55
2023/04/03 06:09:30;;;;;;;11.85;2.65;;;16.30;63.00;;;;;;10325785;28;20550;-53
2023/04/03 06:14:31;;;;;;;14.52;2.05;;;16.30;63.20;;;;;;10326225;28;20101;-55
2023/04/03 06:19:31;;;;;;;21.75;3.50;;;16.20;63.30;;;;;;10325138;28;20129;-54
2023/04/03 06:24:33;;;;;;;7.35;2.35;;;16.30;62.60;;;;;;10325302;28;20031;-55
2023/04/03 06:29:34;;;;;;;9.52;1.60;;;16.30;62.50;;;;;;10324064;28;20030;-53
2023/04/03 06:34:35;;;;;;;7.75;1.20;;;16.30;62.60;;;;;;10323746;28;20041;-55
2023/04/03 06:39:35;;;;;;;7.40;1.70;;;16.20;62.50;;;;;;10324324;28;20502;-54
2023/04/03 06:44:37;;;;;;;8.95;1.77;;;16.30;62.20;;;;;;10325673;28;20022;-54
2023/04/03 06:49:37;;;;;;;11.73;2.10;;;16.20;62.40;;;;;;10326372;28;20034;-55
2023/04/03 06:54:39;;;;;;;7.55;1.63;;;16.20;62.40;;;;;;10326232;28;20473;-56
2023/04/03 06:59:41;;;;;;;7.72;1.30;;;16.10;62.50;;;;;;10333467;28;20117;-55
2023/04/03 07:04:41;;;;;;;6.65;1.13;;;16.10;62.50;;;;;;10326290;28;20046;-56
2023/04/03 07:09:42;;;;;;;10.57;1.83;;;16.20;62.20;;;;;;10325650;28;20034;-55
2023/04/03 07:14:43;;;;;;;5.40;1.23;;;16.10;62.10;;;;;;10325385;28;20026;-55
2023/04/03 07:19:44;;;;;;;5.93;1.48;;;16.10;62.00;;;;;;10323733;28;20061;-56
2023/04/03 07:24:45;;;;;;;4.80;1.00;;;16.20;61.60;;;;;;10324344;28;20023;-55
2023/04/03 07:29:48;;;;;;;4.93;1.50;;;16.20;61.70;;;;;;10322834;28;20089;-56
2023/04/03 07:34:49;;;;;;;5.55;1.60;;;16.10;61.60;;;;;;10323859;28;20860;-56
2023/04/03 07:39:50;;;;;;;8.60;1.70;;;16.10;61.60;;;;;;10324390;28;20029;-54
2023/04/03 07:44:51;;;;;;;4.38;0.93;;;16.20;61.40;;;;;;10324554;28;20030;-55
2023/04/03 07:49:52;;;;;;;4.72;1.63;;;16.20;61.20;;;;;;10324118;28;20038;-56
2023/04/03 07:54:52;;;;;;;3.50;1.60;;;16.10;61.90;;;;;;10324111;28;20023;-56
2023/04/03 07:59:53;;;;;;;5.90;1.92;;;16.20;62.10;;;;;;10334953;28;20659;-54
2023/04/03 08:04:54;;;;;;;18.38;3.17;;;16.30;62.00;;;;;;10323711;28;20493;-54
2023/04/03 08:09:55;;;;;;;5.50;1.55;;;16.20;62.40;;;;;;10323206;28;20034;-56
2023/04/03 08:14:56;;;;;;;12.88;1.88;;;16.20;62.90;;;;;;10321642;28;20338;-55
2023/04/03 08:19:57;;;;;;;17.35;2.25;;;16.10;62.70;;;;;;10320275;28;20014;-56
2023/04/03 08:24:57;;;;;;;14.25;2.58;;;16.00;62.70;;;;;;10319331;28;20050;-55
2023/04/03 08:29:58;;;;;;;10.63;2.60;;;15.80;63.50;;;;;;10320424;28;20022;-56
2023/04/03 08:34:59;;;;;;;12.95;2.53;;;15.80;63.80;;;;;;10321038;28;20152;-53
2023/04/03 08:39:59;;;;;;;14.32;2.00;;;15.70;63.80;;;;;;10321051;28;20104;-55
2023/04/03 08:45:15;;;;;;;8.35;1.48;;;15.70;63.70;;;;;;10322763;28;20407;-56
2023/04/03 08:50:21;;;;;;;5.68;1.30;;;15.70;63.60;;;;;;10321924;28;20034;-56
2023/04/03 08:55:30;;;;;;;7.03;1.25;;;15.60;63.40;;;;;;10328831;28;20030;-54
2023/04/03 09:01:04;;;;;;;12.25;1.58;;;15.60;63.10;;;;;;10325411;28;20022;-55
2023/04/03 09:06:13;;;;;;;5.40;1.00;;;15.60;62.70;;;;;;10329022;28;20517;-56
2023/04/03 09:11:29;;;;;;;4.22;1.05;;;15.60;62.60;;;;;;10328869;28;20034;-56
2023/04/03 09:16:55;;;;;;;6.47;0.82;;;15.60;62.50;;;;;;10329791;28;20062;-56
2023/04/03 09:22:12;;;;;;;5.32;1.35;;;15.60;62.70;;;;;;10329677;28;20015;-56
2023/04/03 09:27:13;;;;;;;5.30;1.00;;;15.50;62.00;;;;;;10313249;28;20027;-56
2023/04/03 09:32:28;;;;;;;6.60;1.17;;;15.50;62.00;;;;;;10329403;28;20041;-56
2023/04/03 09:37:44;;;;;;;16.80;1.90;;;15.50;61.80;;;;;;10329109;28;20038;-56
2023/04/03 09:42:45;;;;;;;3.83;0.80;;;15.50;61.70;;;;;;10329582;28;20022;-55
2023/04/03 09:47:46;;;;;;;5.93;1.25;;;15.50;61.80;;;;;;10328548;28;20058;-56
2023/04/03 09:52:51;;;;;;;2.28;1.00;;;15.50;61.70;;;;;;10328701;28;20113;-56
2023/04/03 09:58:20;;;;;;;6.28;1.00;;;15.50;61.60;;;;;;10328229;28;20453;-56
2023/04/03 10:03:32;;;;;;;7.70;1.53;;;15.50;61.80;;;;;;10338209;28;20022;-56
2023/04/03 10:08:34;;;;;;;3.08;0.90;;;15.50;61.80;;;;;;10328096;28;20088;-56
2023/04/03 10:13:35;;;;;;;3.95;1.13;;;15.50;61.40;;;;;;10328067;28;20010;-56
2023/04/03 10:19:05;;;;;;;6.28;1.23;;;15.50;61.30;;;;;;10327823;28;20105;-56
2023/04/03 10:24:33;;;;;;;2.43;0.60;;;15.50;61.00;;;;;;10327517;28;20026;-55
2023/04/03 10:30:00;;;;;;;2.13;0.70;;;15.50;60.90;;;;;;10326008;28;20332;-57
2023/04/03 10:35:20;;;;;;;3.38;0.77;;;15.50;60.70;;;;;;10326619;28;20035;-56
2023/04/03 10:40:42;;;;;;;2.72;0.73;;;15.50;60.60;;;;;;10326193;28;20018;-55
2023/04/03 10:45:59;;;;;;;4.47;0.80;;;15.50;60.40;;;;;;10326600;28;20030;-56
2023/04/03 10:51:25;;;;;;;5.10;0.75;;;15.50;60.50;;;;;;10326658;28;20034;-56
2023/04/03 10:56:56;;;;;;;4.78;1.10;;;15.50;60.60;;;;;;10326427;28;20583;-55
2023/04/03 11:02:17;;;;;;;3.15;0.77;;;15.60;60.80;;;;;;10314472;28;20373;-56
2023/04/03 11:07:45;;;;;;;3.08;0.93;;;15.60;60.40;;;;;;10325954;28;20051;-56
2023/04/03 11:13:01;;;;;;;9.10;1.17;;;15.60;60.40;;;;;;10326033;28;20053;-54
2023/04/03 11:18:19;;;;;;;4.63;1.75;;;15.60;60.50;;;;;;10324800;28;20039;-56
2023/04/03 11:23:38;;;;;;;7.13;1.05;;;15.50;60.60;;;;;;10323594;28;20054;-55
2023/04/03 11:28:39;;;;;;;5.90;0.70;;;15.60;60.60;;;;;;10330548;28;20022;-56
2023/04/03 11:34:08;;;;;;;4.32;0.75;;;15.50;60.70;;;;;;10323394;28;20097;-54
2023/04/03 11:39:28;;;;;;;7.22;0.95;;;15.50;60.40;;;;;;10323823;28;20030;-57
2023/04/03 11:44:37;;;;;;;12.98;2.38;;;15.50;60.40;;;;;;10324285;28;20027;-56
2023/04/03 11:50:01;;;;;;;6.78;1.15;;;15.60;60.40;;;;;;10323147;28;20037;-57
2023/04/03 11:55:02;;;;;;;2.78;0.98;;;15.60;60.20;;;;;;10322839;28;20501;-54
2023/04/03 12:00:47;;;;;;;10.32;1.40;;;15.60;60.00;;;;;;10332537;28;20119;-55
2023/04/03 12:05:48;;;;;;;3.33;0.90;;;15.60;59.90;;;;;;10322065;28;20513;-56
2023/04/03 12:11:16;;;;;;;3.28;1.40;;;15.60;59.90;;;;;;10321774;28;20049;-56
2023/04/03 12:16:21;;;;;;;3.42;0.60;;;15.70;59.70;;;;;;10320541;28;20039;-56
2023/04/03 12:21:33;;;;;;;14.88;1.92;;;15.70;59.50;;;;;;10320385;28;20050;-53
2023/04/03 12:26:58;;;;;;;29.35;3.05;;;15.70;60.10;;;;;;10324296;28;20030;-59
2023/04/03 12:32:17;;;;;;;19.08;1.90;;;15.70;59.30;;;;;;10329752;28;20481;-55
2023/04/03 12:37:58;;;;;;;11.63;2.95;;;15.70;58.90;;;;;;10329230;28;20399;-55
2023/04/03 12:43:05;;;;;;;11.07;1.80;;;15.70;58.40;;;;;;10329323;28;20110;-56
2023/04/03 12:48:15;;;;;;;11.23;2.65;;;15.80;58.20;;;;;;10327326;28;20470;-56
2023/04/03 12:53:26;;;;;;;17.27;2.63;;;15.80;58.30;;;;;;10329042;28;20054;-57
2023/04/03 12:58:28;;;;;;;15.50;2.60;;;15.90;58.30;;;;;;10327210;28;20023;-55
2023/04/03 13:03:29;;;;;;;19.13;3.20;;;15.90;58.60;;;;;;10339922;28;20062;-57
2023/04/03 13:08:30;;;;;;;13.73;2.28;;;15.90;58.10;;;;;;10329113;28;20034;-58
2023/04/03 13:13:31;;;;;;;10.55;1.83;;;15.90;57.90;;;;;;10326426;28;20018;-56
2023/04/03 13:18:35;;;;;;;14.57;2.95;;;15.80;58.00;;;;;;10327903;28;20113;-56
2023/04/03 13:23:40;;;;;;;10.10;1.85;;;15.80;57.70;;;;;;10328723;28;20021;-57
2023/04/03 13:28:41;;;;;;;11.30;2.42;;;15.90;57.50;;;;;;10320142;28;20733;-59
2023/04/03 13:34:07;;;;;;;13.77;3.65;;;15.90;57.20;;;;;;10326757;28;20027;-55
2023/04/03 13:39:28;;;;;;;32.05;5.57;;;15.90;57.60;;;;;;10324578;28;20351;-57
2023/04/03 13:44:35;;;;;;;32.70;4.28;;;16.00;57.50;;;;;;10326933;28;20026;-60
2023/04/03 13:49:42;;;;;;;21.20;3.08;;;16.10;57.10;;;;;;10326887;28;20124;-56
2023/04/03 13:54:47;;;;;;;25.60;3.72;;;16.00;57.10;;;;;;10326289;28;20038;-56
2023/04/03 13:59:48;;;;;;;14.40;2.67;;;16.10;56.50;;;;;;10308386;28;20097;-58
2023/04/03 14:04:58;;;;;;;24.23;2.75;;;16.10;56.70;;;;;;10326483;28;20050;-54
2023/04/03 14:09:59;;;;;;;12.05;2.50;;;16.00;56.50;;;;;;10326344;28;20037;-58
2023/04/03 14:15:02;;;;;;;18.00;2.65;;;16.00;56.20;;;;;;10327518;28;20791;-57
2023/04/03 14:20:04;;;;;;;27.40;3.95;;;16.00;56.10;;;;;;10325772;28;20106;-56
2023/04/03 14:25:05;;;;;;;21.50;2.78;;;16.00;56.20;;;;;;10325588;28;20045;-57
2023/04/03 14:30:14;;;;;;;17.88;3.53;;;16.10;56.20;;;;;;10324149;28;20027;-58
2023/04/03 14:35:16;;;;;;;27.67;3.58;;;16.10;57.20;;;;;;10321121;28;20035;-55
2023/04/03 14:40:26;;;;;;;18.60;2.70;;;16.20;58.00;;;;;;10324491;28;20061;-57
2023/04/03 14:45:27;;;;;;;20.45;2.70;;;16.20;57.30;;;;;;10323588;28;20046;-56
2023/04/03 14:50:28;;;;;;;20.75;3.10;;;16.20;57.50;;;;;;10323316;28;20057;-57
2023/04/03 14:55:30;;;;;;;10.75;2.15;;;16.20;57.50;;;;;;10340835;28;20377;-57
2023/04/03 15:00:30;;;;;;;8.60;2.20;;;16.20;57.40;;;;;;10333487;28;20026;-57
2023/04/03 15:05:31;;;;;;;11.70;2.40;;;16.20;57.40;;;;;;10323835;28;20133;-57
2023/04/03 15:10:32;;;;;;;9.80;2.55;;;16.20;57.50;;;;;;10313397;28;20030;-57
2023/04/03 15:15:35;;;;;;;8.13;2.30;;;16.20;57.60;;;;;;10322685;28;20481;-56
2023/04/03 15:20:36;;;;;;;10.05;2.10;;;16.20;57.40;;;;;;10322965;28;20113;-57
2023/04/03 15:25:36;;;;;;;11.43;3.97;;;16.20;57.40;;;;;;10324441;28;20026;-56
2023/04/03 15:30:40;;;;;;;10.13;3.65;;;16.10;57.20;;;;;;10312015;28;20117;-56
2023/04/03 15:35:41;;;;;;;17.65;4.43;;;16.10;57.40;;;;;;10315347;28;20608;-57
2023/04/03 15:40:43;;;;;;;14.75;4.28;;;16.20;57.30;;;;;;10315093;28;20477;-56
2023/04/03 15:45:44;;;;;;;7.07;2.35;;;16.50;61.20;;;;;;10318889;28;20023;-57
2023/04/03 15:50:45;;;;;;;22.20;3.55;;;16.60;59.80;;;;;;10321536;28;20053;-54
2023/04/03 15:55:46;;;;;;;20.27;2.60;;;16.60;60.40;;;;;;10321349;28;20125;-56
2023/04/03 16:00:47;;;;;;;19.50;4.82;;;16.80;60.40;;;;;;10324621;28;20014;-55
2023/04/03 16:05:48;;;;;;;12.43;3.65;;;16.60;60.60;;;;;;10321086;28;20035;-54
2023/04/03 16:10:48;;;;;;;15.40;6.18;;;16.50;60.50;;;;;;10316988;28;20030;-54
2023/04/03 16:15:49;;;;;;;15.38;6.38;;;16.60;60.50;;;;;;10319924;28;20045;-58
2023/04/03 16:20:50;;;;;;;14.57;5.15;;;16.60;60.60;;;;;;10319177;28;20373;-57
2023/04/03 16:25:51;;;;;;;16.60;5.15;;;16.40;59.20;;;;;;10320444;28;20133;-55
2023/04/03 16:30:51;;;;;;;11.07;3.75;;;16.40;58.90;;;;;;10321430;28;20681;-55
2023/04/03 16:35:52;;;;;;;12.65;4.07;;;16.30;59.00;;;;;;10321319;28;20501;-55
2023/04/03 16:40:56;;;;;;;15.52;5.35;;;16.30;58.70;;;;;;10322803;28;20121;-56
2023/04/03 16:45:58;;;;;;;13.50;4.35;;;16.20;61.10;;;;;;10321166;28;20066;-55
2023/04/03 16:50:58;;;;;;;12.40;4.95;;;16.30;61.00;;;;;;10322009;28;20038;-55
2023/04/03 16:55:59;;;;;;;16.20;4.55;;;16.40;60.70;;;;;;10320221;28;20037;-57
2023/04/03 17:01:16;;;;;;;13.00;4.43;;;16.40;61.00;;;;;;10330239;28;20113;-58
2023/04/03 17:06:20;;;;;;;7.78;3.33;;;16.40;61.10;;;;;;10321720;28;20518;-55
2023/04/03 17:11:21;;;;;;;17.48;3.95;;;16.20;58.90;;;;;;10322035;28;20038;-55
2023/04/03 17:16:22;;;;;;;11.30;5.13;;;16.00;58.90;;;;;;10327575;28;20041;-56
2023/04/03 17:21:23;;;;;;;16.65;3.80;;;16.00;59.20;;;;;;10333058;28;20026;-57
2023/04/03 17:26:25;;;;;;;7.60;3.67;;;15.90;59.70;;;;;;10329007;28;20034;-56
2023/04/03 17:31:26;;;;;;;6.90;2.35;;;15.90;59.90;;;;;;10329217;28;20022;-56
2023/04/03 17:36:29;;;;;;;8.27;2.72;;;15.80;60.00;;;;;;10328501;28;20030;-57
2023/04/03 17:41:30;;;;;;;10.18;3.00;;;15.80;59.90;;;;;;10327835;28;20505;-55
2023/04/03 17:46:31;;;;;;;9.18;2.60;;;15.80;59.80;;;;;;10328213;28;20026;-56
2023/04/03 17:51:35;;;;;;;10.65;2.70;;;15.80;60.20;;;;;;10328971;28;20039;-57
2023/04/03 17:56:35;;;;;;;8.00;3.40;;;15.70;59.90;;;;;;10328660;28;20654;-57
2023/04/03 18:01:36;;;;;;;14.48;2.53;;;15.70;60.20;;;;;;10330916;28;20026;-56
2023/04/03 18:06:45;;;;;;;8.70;2.53;;;15.70;60.10;;;;;;10327484;28;20584;-57
2023/04/03 18:11:46;;;;;;;9.85;2.25;;;15.60;60.30;;;;;;10324924;28;20038;-56
2023/04/03 18:16:48;;;;;;;4.63;1.33;;;15.60;60.30;;;;;;10324662;28;20125;-56
2023/04/03 18:21:51;;;;;;;6.57;2.53;;;15.50;60.30;;;;;;10327168;28;20106;-56
2023/04/03 18:27:00;;;;;;;9.75;2.97;;;15.50;60.30;;;;;;10308322;28;20469;-57
2023/04/03 18:32:05;;;;;;;3.25;1.35;;;15.50;60.30;;;;;;10312839;28;20068;-56
2023/04/03 18:37:05;;;;;;;5.00;1.45;;;15.50;59.90;;;;;;10325341;28;20638;-55
2023/04/03 18:42:14;;;;;;;4.10;1.35;;;15.50;59.90;;;;;;10326996;28;20022;-57
2023/04/03 18:47:15;;;;;;;5.83;1.80;;;15.70;61.50;;;;;;10325736;28;20027;-59
2023/04/03 18:52:16;;;;;;;7.32;2.22;;;15.90;60.70;;;;;;10324310;28;20037;-57
2023/04/03 18:57:16;;;;;;;10.65;1.70;;;15.90;60.90;;;;;;10340203;28;20018;-56
2023/04/03 19:02:20;;;;;;;5.55;1.70;;;15.80;61.40;;;;;;10327428;28;20026;-56
2023/04/03 19:07:21;;;;;;;7.53;1.85;;;15.80;61.50;;;;;;10324789;28;20069;-57
2023/04/03 19:12:22;;;;;;;6.30;2.05;;;15.80;61.20;;;;;;10325909;28;20048;-57
2023/04/03 19:17:23;;;;;;;4.57;1.65;;;15.70;60.50;;;;;;10326574;28;20029;-57
2023/04/03 19:22:24;;;;;;;4.18;1.42;;;15.60;60.60;;;;;;10325527;28;20117;-57
2023/04/03 19:27:24;;;;;;;3.50;1.45;;;15.50;60.80;;;;;;10322914;28;20022;-57
2023/04/03 19:32:26;;;;;;;7.15;2.03;;;15.50;60.60;;;;;;10323760;28;20038;-57
2023/04/03 19:37:27;;;;;;;4.53;1.65;;;15.50;61.00;;;;;;10320858;28;20018;-56
2023/04/03 19:42:30;;;;;;;4.95;1.30;;;15.50;60.30;;;;;;10321089;28;20113;-57
2023/04/03 19:47:30;;;;;;;5.40;1.65;;;15.40;60.20;;;;;;10320225;28;20093;-56
2023/04/03 19:52:31;;;;;;;3.75;1.60;;;15.40;60.40;;;;;;10321056;28;20724;-56
2023/04/03 19:57:32;;;;;;;3.92;1.25;;;15.40;60.70;;;;;;10322370;28;20125;-56
2023/04/03 20:02:32;;;;;;;3.65;1.20;;;15.30;60.80;;;;;;10334030;28;20034;-57
2023/04/03 20:07:33;;;;;;;3.50;1.40;;;15.30;60.90;;;;;;10324134;28;20124;-57
2023/04/03 20:12:36;;;;;;;1.50;0.60;;;15.30;61.20;;;;;;10323283;28;20046;-57
2023/04/03 20:17:37;;;;;;;5.43;1.48;;;15.30;61.50;;;;;;10323530;28;20041;-56
2023/04/03 20:22:39;;;;;;;2.67;0.98;;;15.30;61.30;;;;;;10323585;28;20027;-57
2023/04/03 20:27:40;;;;;;;1.27;0.70;;;15.30;61.10;;;;;;10323132;28;20031;-56
2023/04/03 20:32:40;;;;;;;4.57;1.05;;;15.20;60.60;;;;;;10323354;28;20018;-57
2023/04/03 20:37:41;;;;;;;1.92;0.63;;;15.20;60.40;;;;;;10322640;28;20169;-56
2023/04/03 20:42:42;;;;;;;3.67;1.02;;;15.20;60.30;;;;;;10321728;28;20082;-57
2023/04/03 20:47:43;;;;;;;1.70;0.63;;;15.20;60.00;;;;;;10340717;28;20379;-57
2023/04/03 20:52:44;;;;;;;3.70;0.80;;;15.20;60.00;;;;;;10331001;28;20494;-57
2023/04/03 20:57:45;;;;;;;2.03;0.70;;;15.10;59.80;;;;;;10330839;28;20034;-56
2023/04/03 21:02:49;;;;;;;2.53;0.90;;;15.10;59.50;;;;;;10341197;28;20015;-57
2023/04/03 21:08:46;;;;;;;2.50;0.88;;;15.10;59.30;;;;;;10329927;28;20049;-56
2023/04/03 21:14:45;;;;;;;2.22;0.73;;;15.10;59.20;;;;;;10330670;28;20493;-57
2023/04/03 21:19:47;;;;;;;1.92;0.77;;;15.10;59.20;;;;;;10320064;28;20485;-57
2023/04/03 21:24:48;;;;;;;1.33;0.70;;;15.00;58.90;;;;;;10329564;28;20019;-57
2023/04/03 21:29:49;;;;;;;1.98;0.90;;;15.00;58.70;;;;;;10329814;28;20545;-56
2023/04/03 21:34:50;;;;;;;2.50;0.88;;;15.00;58.70;;;;;;10329535;28;20786;-56
2023/04/03 21:39:51;;;;;;;1.50;0.90;;;15.00;58.90;;;;;;10328913;28;20027;-55
2023/04/03 21:44:52;;;;;;;3.00;1.15;;;15.00;59.20;;;;;;10329370;28;20022;-57
2023/04/03 21:49:52;;;;;;;2.63;1.20;;;15.00;59.10;;;;;;10328953;28;20121;-57
2023/04/03 21:54:53;;;;;;;1.45;0.63;;;14.90;59.10;;;;;;10328640;28;20110;-57
2023/04/03 21:59:54;;;;;;;2.63;0.80;;;14.90;58.80;;;;;;10338685;28;20112;-57
2023/04/03 22:04:55;;;;;;;4.50;0.90;;;14.90;59.00;;;;;;10316156;28;20058;-57
2023/04/03 22:09:56;;;;;;;4.78;1.02;;;14.90;58.70;;;;;;10327982;28;20560;-57
2023/04/03 22:14:56;;;;;;;2.00;0.70;;;14.90;58.70;;;;;;10328168;28;20112;-56
2023/04/03 22:19:57;;;;;;;1.33;0.77;;;14.90;58.90;;;;;;10327881;28;20050;-56
2023/04/03 22:24:57;;;;;;;2.95;0.93;;;14.90;58.50;;;;;;10326874;28;20569;-57
2023/04/03 22:29:58;;;;;;;2.28;1.00;;;14.80;58.40;;;;;;10326058;28;20138;-56
2023/04/03 22:34:59;;;;;;;1.75;0.65;;;14.80;58.30;;;;;;10327339;28;20054;-55
2023/04/03 22:39:59;;;;;;;2.53;1.25;;;14.80;58.30;;;;;;10326781;28;20493;-57
2023/04/03 22:45:00;;;;;;;1.50;0.82;;;14.80;57.90;;;;;;10326922;28;20088;-56
2023/04/03 22:50:01;;;;;;;1.90;1.15;;;14.80;58.00;;;;;;10326379;28;20034;-57
2023/04/03 22:55:02;;;;;;;1.23;0.70;;;14.70;57.80;;;;;;10326418;28;20439;-58
2023/04/03 23:00:03;;;;;;;3.03;0.80;;;14.70;58.60;;;;;;10336607;28;20650;-57
2023/04/03 23:05:05;;;;;;;1.20;0.60;;;14.80;58.10;;;;;;10326068;28;20054;-57
2023/04/03 23:10:06;;;;;;;2.33;0.80;;;14.70;57.70;;;;;;10325384;28;20062;-57
2023/04/03 23:15:08;;;;;;;2.10;0.70;;;14.70;57.80;;;;;;10325429;28;20018;-56
2023/04/03 23:20:09;;;;;;;1.67;0.60;;;14.70;58.10;;;;;;10318011;28;20401;-57
2023/04/03 23:25:10;;;;;;;1.52;0.85;;;14.70;57.80;;;;;;10325448;28;20054;-57
2023/04/03 23:30:10;;;;;;;2.25;0.82;;;14.70;57.90;;;;;;10324620;28;20034;-57
2023/04/03 23:35:11;;;;;;;1.33;0.52;;;14.70;57.80;;;;;;10324969;28;20405;-57
2023/04/03 23:40:12;;;;;;;1.70;0.60;;;14.60;57.90;;;;;;10323467;28;20554;-57
2023/04/03 23:45:13;;;;;;;2.40;0.57;;;14.60;58.10;;;;;;10324319;28;20030;-57
2023/04/03 23:50:13;;;;;;;1.55;0.73;;;14.60;58.40;;;;;;10324052;28;20035;-57
2023/04/03 23:55:14;;;;;;;2.35;0.70;;;14.60;58.10;;;;;;10324431;28;20027;-57
